createdAt,value
2023-02-26T00:00:59.766Z,101082.59
2023-02-26T00:03:26.462Z,101085.88
2023-02-26T00:05:53.003Z,101087.81
2023-02-26T00:08:19.517Z,101085.88
2023-02-26T00:10:46.261Z,101098.78
2023-02-26T00:13:12.985Z,101098.13
2023-02-26T00:15:39.696Z,101101.09
2023-02-26T00:18:09.497Z,101115.13
2023-02-26T00:20:37.513Z,101114.88
2023-02-26T00:23:04.387Z,101114.31
2023-02-26T00:25:30.825Z,101121.88
2023-02-26T00:27:57.560Z,101126.66
2023-02-26T00:30:24.161Z,101116.81
2023-02-26T00:32:50.807Z,101128.78
2023-02-26T00:35:17.568Z,101127.19
2023-02-26T00:38:00.161Z,101138.75
2023-02-26T00:40:45.167Z,101132.81
2023-02-26T00:43:22.524Z,101140.88
2023-02-26T00:46:27.498Z,101141.34
2023-02-26T00:49:18.470Z,101149.44
2023-02-26T00:52:02.223Z,101153.38
2023-02-26T00:54:30.518Z,101152.84
2023-02-26T00:56:58.603Z,101157.81
2023-02-26T00:59:25.359Z,101156.06
2023-02-26T01:01:52.480Z,101146.75
2023-02-26T01:04:21.706Z,101155.97
2023-02-26T01:06:51.268Z,101149.63
2023-02-26T01:09:26.657Z,101148.97
2023-02-26T01:11:55.310Z,101149.81
2023-02-26T01:14:22.381Z,101156.50
2023-02-26T01:17:19.294Z,101160.47
2023-02-26T01:20:01.540Z,101160.06
2023-02-26T01:22:40.355Z,101161.38
2023-02-26T01:25:12.041Z,101169.81
2023-02-26T01:27:38.977Z,101172.13
2023-02-26T01:30:07.991Z,101184.81
2023-02-26T01:32:46.689Z,101185.28
2023-02-26T01:35:42.583Z,101187.59
2023-02-26T01:38:37.042Z,101190.16
2023-02-26T01:41:19.670Z,101193.06
2023-02-26T01:44:09.633Z,101193.88
2023-02-26T01:47:10.617Z,101198.66
2023-02-26T01:49:38.417Z,101205.22
2023-02-26T01:52:07.123Z,101206.41
2023-02-26T01:54:37.219Z,101207.69
2023-02-26T01:57:17.051Z,101215.16
2023-02-26T01:59:46.533Z,101203.31
2023-02-26T02:02:17.553Z,101212.50
2023-02-26T02:04:44.409Z,101213.91
2023-02-26T02:07:11.047Z,101225.31
2023-02-26T02:09:38.093Z,101223.63
2023-02-26T02:12:40.747Z,101233.38
2023-02-26T02:15:29.443Z,101235.31
2023-02-26T02:17:59.859Z,101238.19
2023-02-26T02:20:57.674Z,101243.78
2023-02-26T02:23:33.118Z,101247.09
2023-02-26T02:26:32.361Z,101243.22
2023-02-26T02:29:35.816Z,101256.09
2023-02-26T02:32:12.063Z,101267.97
2023-02-26T02:34:48.548Z,101258.47
2023-02-26T02:37:29.558Z,101255.63
2023-02-26T02:40:01.912Z,101260.44
2023-02-26T02:42:36.850Z,101254.72
2023-02-26T02:45:20.752Z,101268.25
2023-02-26T02:47:54.167Z,101265.69
2023-02-26T02:50:31.098Z,101267.13
2023-02-26T02:53:22.630Z,101280.97
2023-02-26T02:56:00.340Z,101278.66
2023-02-26T02:58:32.296Z,101287.47
2023-02-26T03:01:08.301Z,101279.28
2023-02-26T03:03:42.029Z,101287.47
2023-02-26T03:06:08.858Z,101285.72
2023-02-26T03:08:39.544Z,101292.53
2023-02-26T03:11:08.975Z,101292.34
2023-02-26T03:13:36.697Z,101294.84
2023-02-26T03:16:41.671Z,101294.38
2023-02-26T03:19:21.712Z,101294.41
2023-02-26T03:21:51.379Z,101305.88
2023-02-26T03:24:46.606Z,101298.84
2023-02-26T03:27:19.560Z,101306.97
2023-02-26T03:29:58.668Z,101308.88
2023-02-26T03:32:42.317Z,101308.53
2023-02-26T03:35:17.910Z,101312.75
2023-02-26T03:37:57.357Z,101322.75
2023-02-26T03:40:30.358Z,101322.66
2023-02-26T03:43:05.354Z,101327.81
2023-02-26T03:45:35.918Z,101327.41
2023-02-26T03:48:05.759Z,101330.78
2023-02-26T03:50:40.036Z,101337.72
2023-02-26T03:53:47.666Z,101345.06
2023-02-26T03:56:28.626Z,101343.28
2023-02-26T03:59:31.043Z,101346.59
2023-02-26T04:02:34.070Z,101352.53
2023-02-26T04:05:14.853Z,101360.06
2023-02-26T04:07:42.635Z,101355.19
2023-02-26T04:10:11.230Z,101361.13
2023-02-26T04:12:37.919Z,101367.25
2023-02-26T04:15:07.629Z,101375.31
2023-02-26T04:17:34.755Z,101377.16
2023-02-26T04:20:01.244Z,101373.16
2023-02-26T04:22:29.195Z,101377.97
2023-02-26T04:24:55.855Z,101382.84
2023-02-26T04:27:22.328Z,101382.50
2023-02-26T04:29:48.784Z,101389.03
2023-02-26T04:32:15.369Z,101397.66
2023-02-26T04:34:41.997Z,101389.78
2023-02-26T04:37:08.879Z,101397.66
2023-02-26T04:39:36.395Z,101397.16
2023-02-26T04:42:04.560Z,101406.81
2023-02-26T04:44:32.186Z,101411.81
2023-02-26T04:47:00.240Z,101414.00
2023-02-26T04:49:28.165Z,101419.81
2023-02-26T04:51:54.745Z,101423.81
2023-02-26T04:54:22.220Z,101422.34
2023-02-26T04:56:48.674Z,101437.56
2023-02-26T04:59:15.557Z,101436.34
2023-02-26T05:01:42.045Z,101430.28
2023-02-26T05:04:08.721Z,101437.19
2023-02-26T05:06:36.161Z,101436.81
2023-02-26T05:09:03.556Z,101442.19
2023-02-26T05:11:30.320Z,101441.25
2023-02-26T05:13:56.716Z,101454.25
2023-02-26T05:16:23.586Z,101448.91
2023-02-26T05:18:50.860Z,101455.59
2023-02-26T05:21:18.063Z,101463.72
2023-02-26T05:23:45.588Z,101469.75
2023-02-26T05:26:12.024Z,101477.25
2023-02-26T05:28:38.693Z,101478.91
2023-02-26T05:31:05.877Z,101482.91
2023-02-26T05:33:32.594Z,101485.28
2023-02-26T05:35:58.974Z,101487.75
2023-02-26T05:38:25.424Z,101490.41
2023-02-26T05:40:56.659Z,101500.53
2023-02-26T05:43:23.346Z,101496.72
2023-02-26T05:45:50.910Z,101498.94
2023-02-26T05:48:17.398Z,101502.41
2023-02-26T05:50:43.805Z,101507.09
2023-02-26T05:53:10.253Z,101514.94
2023-02-26T05:55:36.884Z,101521.59
2023-02-26T05:58:03.636Z,101523.59
2023-02-26T06:00:30.835Z,101526.09
2023-02-26T06:02:57.451Z,101526.78
2023-02-26T06:05:24.065Z,101536.09
2023-02-26T06:07:50.510Z,101538.25
2023-02-26T06:10:17.789Z,101538.25
2023-02-26T06:12:44.287Z,101544.41
2023-02-26T06:15:11.348Z,101552.72
2023-02-26T06:17:40.581Z,101552.91
2023-02-26T06:20:08.166Z,101555.91
2023-02-26T06:22:34.717Z,101565.69
2023-02-26T06:25:01.890Z,101570.03
2023-02-26T06:27:28.297Z,101575.53
2023-02-26T06:29:54.713Z,101576.00
2023-02-26T06:32:21.171Z,101582.31
2023-02-26T06:34:47.722Z,101592.31
2023-02-26T06:37:14.387Z,101583.00
2023-02-26T06:39:41.117Z,101596.66
2023-02-26T06:42:07.784Z,101595.50
2023-02-26T06:44:34.562Z,101605.13
2023-02-26T06:47:01.139Z,101601.97
2023-02-26T06:49:27.630Z,101608.81
2023-02-26T06:51:54.073Z,101617.13
2023-02-26T06:54:20.839Z,101618.94
2023-02-26T06:56:47.234Z,101617.13
2023-02-26T06:59:15.221Z,101622.78
2023-02-26T07:01:41.892Z,101626.59
2023-02-26T07:04:08.744Z,101621.44
2023-02-26T07:06:35.300Z,101621.09
2023-02-26T07:09:02.069Z,101622.63
2023-02-26T07:11:28.550Z,101635.22
2023-02-26T07:13:55.433Z,101642.56
2023-02-26T07:16:22.054Z,101642.41
2023-02-26T07:18:48.532Z,101653.41
2023-02-26T07:21:14.937Z,101646.91
2023-02-26T07:23:41.368Z,101657.72
2023-02-26T07:26:08.971Z,101659.38
2023-02-26T07:28:35.964Z,101662.22
2023-02-26T07:31:07.695Z,101672.88
2023-02-26T07:33:35.046Z,101673.84
2023-02-26T07:36:04.026Z,101675.53
2023-02-26T07:38:30.429Z,101663.72
2023-02-26T07:40:57.424Z,101672.53
2023-02-26T07:43:24.807Z,101672.03
2023-02-26T07:45:52.827Z,101681.19
2023-02-26T07:48:19.855Z,101696.16
2023-02-26T07:50:46.842Z,101692.00
2023-02-26T07:53:13.325Z,101707.47
2023-02-26T07:55:39.779Z,101704.81
2023-02-26T07:58:06.298Z,101705.31
2023-02-26T08:00:33.173Z,101713.44
2023-02-26T08:02:59.809Z,101711.47
2023-02-26T08:05:28.306Z,101721.44
2023-02-26T08:07:56.635Z,101723.09
2023-02-26T08:10:23.447Z,101728.22
2023-02-26T08:12:49.973Z,101728.56
2023-02-26T08:15:16.430Z,101724.69
2023-02-26T08:17:42.821Z,101726.88
2023-02-26T08:20:09.948Z,101732.84
2023-02-26T08:22:36.633Z,101734.69
2023-02-26T08:25:03.649Z,101736.31
2023-02-26T08:27:30.108Z,101743.97
2023-02-26T08:29:56.696Z,101737.09
2023-02-26T08:32:23.607Z,101747.94
2023-02-26T08:34:50.075Z,101764.09
2023-02-26T08:37:16.505Z,101769.25
2023-02-26T08:39:42.964Z,101772.56
2023-02-26T08:42:11.218Z,101768.53
2023-02-26T08:44:37.761Z,101763.75
2023-02-26T08:47:04.369Z,101772.34
2023-02-26T08:49:30.813Z,101785.31
2023-02-26T08:51:57.590Z,101782.16
2023-02-26T08:54:24.846Z,101788.50
2023-02-26T08:56:53.371Z,101788.66
2023-02-26T08:59:19.778Z,101793.31
2023-02-26T09:01:46.558Z,101795.56
2023-02-26T09:04:13.020Z,101810.53
2023-02-26T09:06:39.423Z,101814.03
2023-02-26T09:09:06.079Z,101812.31
2023-02-26T09:11:32.715Z,101819.94
2023-02-26T09:13:59.385Z,101821.47
2023-02-26T09:16:26.951Z,101817.63
2023-02-26T09:18:55.889Z,101821.41
2023-02-26T09:21:22.773Z,101820.28
2023-02-26T09:23:49.592Z,101823.22
2023-02-26T09:26:16.047Z,101829.50
2023-02-26T09:28:42.491Z,101833.28
2023-02-26T09:31:09.221Z,101829.56
2023-02-26T09:33:36.554Z,101831.47
2023-02-26T09:36:03.910Z,101834.03
2023-02-26T09:38:30.456Z,101834.50
2023-02-26T09:41:07.082Z,101835.72
2023-02-26T09:44:02.426Z,101841.47
2023-02-26T09:46:48.525Z,101832.25
2023-02-26T09:49:28.792Z,101840.66
2023-02-26T09:52:33.981Z,101842.72
2023-02-26T09:55:06.153Z,101847.84
2023-02-26T09:57:36.072Z,101845.97
2023-02-26T10:00:17.057Z,101852.41
2023-02-26T10:02:53.444Z,101850.19
2023-02-26T10:05:38.857Z,101855.13
2023-02-26T10:08:12.410Z,101861.38
2023-02-26T10:10:51.366Z,101876.63
2023-02-26T10:13:34.226Z,101868.78
2023-02-26T10:16:11.150Z,101876.81
2023-02-26T10:18:46.415Z,101876.19
2023-02-26T10:21:23.838Z,101872.84
2023-02-26T10:23:56.240Z,101880.88
2023-02-26T10:26:28.224Z,101879.69
2023-02-26T10:29:25.421Z,101876.09
2023-02-26T10:32:20.181Z,101870.91
2023-02-26T10:34:57.816Z,101884.09
2023-02-26T10:37:38.875Z,101877.88
2023-02-26T10:40:17.345Z,101875.84
2023-02-26T10:42:50.741Z,101877.69
2023-02-26T10:45:42.584Z,101876.88
2023-02-26T10:48:16.800Z,101883.09
2023-02-26T10:50:51.834Z,101889.97
2023-02-26T10:53:19.009Z,101883.22
2023-02-26T10:56:07.464Z,101871.34
2023-02-26T10:58:34.013Z,101888.81
2023-02-26T11:01:00.758Z,101891.84
2023-02-26T11:03:41.602Z,101893.53
2023-02-26T11:06:20.993Z,101894.31
2023-02-26T11:08:52.145Z,101906.56
2023-02-26T11:11:41.480Z,101905.25
2023-02-26T11:14:11.370Z,101902.53
2023-02-26T11:16:52.237Z,101896.31
2023-02-26T11:19:27.417Z,101897.66
2023-02-26T11:21:54.808Z,101901.84
2023-02-26T11:24:37.360Z,101908.78
2023-02-26T11:27:06.363Z,101910.47
2023-02-26T11:29:38.518Z,101912.25
2023-02-26T11:32:06.341Z,101908.47
2023-02-26T11:34:33.068Z,101915.31
2023-02-26T11:37:01.482Z,101908.19
2023-02-26T11:39:33.026Z,101908.91
2023-02-26T11:42:02.531Z,101900.28
2023-02-26T11:44:41.905Z,101899.22
2023-02-26T11:47:15.194Z,101912.19
2023-02-26T11:49:45.360Z,101905.00
2023-02-26T11:52:11.725Z,101898.13
2023-02-26T11:54:39.687Z,101904.13
2023-02-26T11:57:15.272Z,101894.81
2023-02-26T11:59:41.681Z,101907.31
2023-02-26T12:02:12.890Z,101910.66
2023-02-26T12:04:45.706Z,101907.91
2023-02-26T12:07:14.964Z,101910.38
2023-02-26T12:09:41.901Z,101905.91
2023-02-26T12:12:16.462Z,101912.41
2023-02-26T12:15:08.180Z,101913.97
2023-02-26T12:17:59.037Z,101906.75
2023-02-26T12:20:47.461Z,101912.63
2023-02-26T12:23:34.351Z,101909.03
2023-02-26T12:26:09.400Z,101906.47
2023-02-26T12:28:47.487Z,101915.56
2023-02-26T12:31:19.746Z,101909.31
2023-02-26T12:33:49.200Z,101912.56
2023-02-26T12:36:24.733Z,101909.09
2023-02-26T12:39:13.215Z,101914.38
2023-02-26T12:41:58.470Z,101914.16
2023-02-26T12:44:52.165Z,101913.25
2023-02-26T12:47:37.956Z,101904.75
2023-02-26T12:50:21.769Z,101907.38
2023-02-26T12:53:29.103Z,101903.34
2023-02-26T12:56:21.229Z,101906.53
2023-02-26T12:59:13.440Z,101912.88
2023-02-26T13:02:00.418Z,101909.75
2023-02-26T13:04:47.581Z,101910.41
2023-02-26T13:07:23.215Z,101902.38
2023-02-26T13:10:02.247Z,101907.16
2023-02-26T13:12:54.990Z,101902.47
2023-02-26T13:15:38.368Z,101916.34
2023-02-26T13:18:25.027Z,101890.06
2023-02-26T13:21:00.471Z,101905.22
2023-02-26T13:23:37.554Z,101904.50
2023-02-26T13:26:09.078Z,101896.00
2023-02-26T13:28:48.102Z,101910.47
2023-02-26T13:31:27.384Z,101901.75
2023-02-26T13:33:56.979Z,101905.88
2023-02-26T13:36:25.802Z,101911.75
2023-02-26T13:39:40.906Z,101895.84
2023-02-26T13:42:50.662Z,101913.47
2023-02-26T13:45:55.995Z,101904.97
2023-02-26T13:48:36.393Z,101901.44
2023-02-26T13:51:27.740Z,101915.09
2023-02-26T13:53:59.707Z,101897.72
2023-02-26T13:56:31.830Z,101909.91
2023-02-26T13:59:13.601Z,101890.25
2023-02-26T14:01:46.760Z,101895.84
2023-02-26T14:04:19.271Z,101893.78
2023-02-26T14:06:48.590Z,101896.28
2023-02-26T14:09:21.062Z,101902.53
2023-02-26T14:12:02.610Z,101899.19
2023-02-26T14:15:06.254Z,101894.00
2023-02-26T14:17:38.940Z,101889.44
2023-02-26T14:20:23.637Z,101888.63
2023-02-26T14:23:10.826Z,101887.19
2023-02-26T14:25:42.436Z,101892.16
2023-02-26T14:28:40.117Z,101893.22
2023-02-26T14:31:14.723Z,101897.78
2023-02-26T14:34:09.941Z,101897.16
2023-02-26T14:36:46.554Z,101889.47
2023-02-26T14:39:25.260Z,101889.28
2023-02-26T14:41:57.229Z,101890.09
2023-02-26T14:44:28.269Z,101900.03
2023-02-26T14:46:55.368Z,101898.16
2023-02-26T14:49:30.596Z,101892.16
2023-02-26T14:52:13.750Z,101891.28
2023-02-26T14:55:18.208Z,101912.00
2023-02-26T14:57:50.820Z,101905.00
2023-02-26T15:00:31.561Z,101895.28
2023-02-26T15:03:16.396Z,101903.97
2023-02-26T15:06:20.466Z,101905.84
2023-02-26T15:08:57.709Z,101900.88
2023-02-26T15:11:50.119Z,101910.16
2023-02-26T15:14:40.789Z,101907.03
2023-02-26T15:17:10.120Z,101914.44
2023-02-26T15:19:58.296Z,101916.84
2023-02-26T15:22:50.901Z,101919.19
2023-02-26T15:25:27.441Z,101921.22
2023-02-26T15:27:54.766Z,101911.94
2023-02-26T15:30:23.013Z,101913.75
2023-02-26T15:32:49.714Z,101923.09
2023-02-26T15:35:21.104Z,101929.50
2023-02-26T15:37:53.377Z,101924.31
2023-02-26T15:40:20.275Z,101925.94
2023-02-26T15:42:51.220Z,101931.25
2023-02-26T15:45:27.197Z,101932.94
2023-02-26T15:47:58.115Z,101935.47
2023-02-26T15:50:29.173Z,101930.06
2023-02-26T15:52:59.368Z,101937.25
2023-02-26T15:55:26.028Z,101935.06
2023-02-26T15:57:54.642Z,101935.16
2023-02-26T16:00:25.502Z,101936.56
2023-02-26T16:02:59.484Z,101933.44
2023-02-26T16:05:26.679Z,101935.13
2023-02-26T16:07:53.191Z,101947.13
2023-02-26T16:10:40.057Z,101937.03
2023-02-26T16:13:11.529Z,101938.47
2023-02-26T16:15:39.933Z,101945.03
2023-02-26T16:18:12.229Z,101941.69
2023-02-26T16:20:47.285Z,101950.22
2023-02-26T16:23:29.427Z,101939.66
2023-02-26T16:26:02.079Z,101944.53
2023-02-26T16:28:35.134Z,101945.09
2023-02-26T16:31:04.685Z,101954.34
2023-02-26T16:33:35.292Z,101961.34
2023-02-26T16:36:12.647Z,101964.28
2023-02-26T16:38:50.281Z,101963.66
2023-02-26T16:41:23.500Z,101966.38
2023-02-26T16:43:53.763Z,101975.91
2023-02-26T16:46:33.060Z,101985.13
2023-02-26T16:49:06.396Z,101983.22
2023-02-26T16:51:37.338Z,101985.63
2023-02-26T16:54:15.813Z,101993.59
2023-02-26T16:56:43.857Z,101994.75
2023-02-26T16:59:23.975Z,101992.63
2023-02-26T17:01:57.786Z,102001.66
2023-02-26T17:04:29.571Z,102010.75
2023-02-26T17:06:56.860Z,102014.63
2023-02-26T17:09:42.169Z,102005.84
2023-02-26T17:12:19.229Z,102026.00
2023-02-26T17:14:51.830Z,102023.03
2023-02-26T17:17:18.455Z,102026.34
2023-02-26T17:19:44.927Z,102024.88
2023-02-26T17:22:14.827Z,102031.16
2023-02-26T17:24:47.340Z,102036.69
2023-02-26T17:27:18.335Z,102042.91
2023-02-26T17:29:50.835Z,102042.19
2023-02-26T17:32:23.159Z,102047.00
2023-02-26T17:34:51.523Z,102043.84
2023-02-26T17:37:18.342Z,102047.63
2023-02-26T17:39:45.206Z,102043.03
2023-02-26T17:42:14.068Z,102053.16
2023-02-26T17:44:40.628Z,102044.75
2023-02-26T17:47:10.746Z,102052.09
2023-02-26T17:49:37.229Z,102056.44
2023-02-26T17:52:04.184Z,102057.19
2023-02-26T17:54:31.122Z,102058.72
2023-02-26T17:56:59.578Z,102067.53
2023-02-26T17:59:26.873Z,102065.84
2023-02-26T18:01:53.438Z,102068.72
2023-02-26T18:04:19.922Z,102070.28
2023-02-26T18:06:46.560Z,102074.53
2023-02-26T18:09:13.526Z,102078.97
2023-02-26T18:11:41.912Z,102081.66
2023-02-26T18:14:09.482Z,102079.72
2023-02-26T18:16:40.256Z,102076.84
2023-02-26T18:19:08.085Z,102081.13
2023-02-26T18:21:35.001Z,102077.31
2023-02-26T18:24:01.997Z,102078.53
2023-02-26T18:26:32.411Z,102085.66
2023-02-26T18:28:59.330Z,102084.97
2023-02-26T18:31:34.396Z,102081.00
2023-02-26T18:34:03.293Z,102081.00
2023-02-26T18:36:37.649Z,102086.63
2023-02-26T18:39:06.962Z,102085.03
2023-02-26T18:41:33.480Z,102085.16
2023-02-26T18:44:00.394Z,102085.78
2023-02-26T18:46:29.848Z,102087.91
2023-02-26T18:48:56.708Z,102091.81
2023-02-26T18:51:23.222Z,102085.16
2023-02-26T18:53:49.633Z,102089.38
2023-02-26T18:56:16.090Z,102092.63
2023-02-26T18:58:42.535Z,102087.63
2023-02-26T19:01:09.054Z,102089.50
2023-02-26T19:03:35.606Z,102089.72
2023-02-26T19:06:05.087Z,102085.88
2023-02-26T19:08:32.107Z,102099.13
2023-02-26T19:10:58.630Z,102099.13
2023-02-26T19:13:25.355Z,102102.34
2023-02-26T19:15:51.891Z,102105.41
2023-02-26T19:18:18.345Z,102108.59
2023-02-26T19:20:45.113Z,102106.44
2023-02-26T19:23:11.881Z,102110.13
2023-02-26T19:25:41.252Z,102110.50
2023-02-26T19:28:09.071Z,102115.72
2023-02-26T19:30:36.357Z,102114.84
2023-02-26T19:33:03.620Z,102104.50
2023-02-26T19:35:30.711Z,102112.91
2023-02-26T19:37:57.256Z,102116.41
2023-02-26T19:40:24.900Z,102121.28
2023-02-26T19:42:51.351Z,102123.63
2023-02-26T19:45:17.817Z,102118.78
2023-02-26T19:47:44.319Z,102120.66
2023-02-26T19:50:12.560Z,102118.97
2023-02-26T19:52:38.987Z,102122.66
2023-02-26T19:55:07.157Z,102133.19
2023-02-26T19:57:33.900Z,102134.56
2023-02-26T20:00:00.615Z,102138.38
2023-02-26T20:02:27.361Z,102141.22
2023-02-26T20:04:53.809Z,102141.91
2023-02-26T20:07:20.482Z,102146.09
2023-02-26T20:09:48.783Z,102149.50
2023-02-26T20:12:15.979Z,102148.97
2023-02-26T20:14:42.439Z,102150.00
2023-02-26T20:17:08.988Z,102153.34
2023-02-26T20:19:35.609Z,102145.97
2023-02-26T20:22:02.830Z,102154.53
2023-02-26T20:24:29.281Z,102155.38
2023-02-26T20:26:56.069Z,102161.06
2023-02-26T20:29:23.497Z,102166.56
2023-02-26T20:31:50.762Z,102168.75
2023-02-26T20:34:19.310Z,102171.75
2023-02-26T20:36:48.257Z,102169.25
2023-02-26T20:39:14.876Z,102181.28
2023-02-26T20:41:42.037Z,102180.81
2023-02-26T20:44:08.672Z,102180.31
2023-02-26T20:46:38.694Z,102186.16
2023-02-26T20:49:11.605Z,102188.47
2023-02-26T20:51:42.495Z,102194.31
2023-02-26T20:54:14.619Z,102199.50
2023-02-26T20:56:41.314Z,102202.66
2023-02-26T20:59:07.959Z,102205.66
2023-02-26T21:01:37.114Z,102205.66
2023-02-26T21:04:08.629Z,102217.19
2023-02-26T21:06:36.775Z,102213.50
2023-02-26T21:09:04.642Z,102210.66
2023-02-26T21:11:33.534Z,102214.84
2023-02-26T21:14:02.843Z,102212.03
2023-02-26T21:16:29.643Z,102213.66
2023-02-26T21:18:57.850Z,102207.50
2023-02-26T21:21:24.471Z,102210.34
2023-02-26T21:23:52.980Z,102215.34
2023-02-26T21:26:23.438Z,102206.84
2023-02-26T21:28:50.659Z,102210.81
2023-02-26T21:31:19.165Z,102215.81
2023-02-26T21:33:46.065Z,102215.94
2023-02-26T21:36:13.982Z,102222.94
2023-02-26T21:38:40.637Z,102226.41
2023-02-26T21:41:07.298Z,102231.28
2023-02-26T21:43:33.777Z,102233.63
2023-02-26T21:46:00.232Z,102233.75
2023-02-26T21:48:26.697Z,102230.09
2023-02-26T21:50:56.136Z,102231.09
2023-02-26T21:53:22.982Z,102227.59
2023-02-26T21:55:49.459Z,102236.09
2023-02-26T21:58:15.896Z,102234.91
2023-02-26T22:00:42.332Z,102239.88
2023-02-26T22:03:08.787Z,102237.22
2023-02-26T22:05:35.389Z,102245.03
2023-02-26T22:08:02.022Z,102230.16
2023-02-26T22:10:29.143Z,102241.00
2023-02-26T22:12:55.898Z,102237.50
2023-02-26T22:15:22.375Z,102235.50
2023-02-26T22:17:48.790Z,102239.66
2023-02-26T22:20:15.239Z,102248.13
2023-02-26T22:22:41.806Z,102244.78
2023-02-26T22:25:12.367Z,102241.75
2023-02-26T22:27:39.481Z,102244.75
2023-02-26T22:30:08.001Z,102242.91
2023-02-26T22:32:35.680Z,102237.09
2023-02-26T22:35:02.815Z,102240.28
2023-02-26T22:37:29.218Z,102240.91
2023-02-26T22:39:56.812Z,102245.41
2023-02-26T22:42:23.260Z,102250.75
2023-02-26T22:44:49.781Z,102247.94
2023-02-26T22:47:16.240Z,102251.56
2023-02-26T22:49:42.723Z,102251.72
2023-02-26T22:52:10.453Z,102258.09
2023-02-26T22:54:38.797Z,102249.56
2023-02-26T22:57:06.132Z,102254.75
2023-02-26T22:59:32.577Z,102261.53
2023-02-26T23:01:59.264Z,102263.22
2023-02-26T23:04:25.902Z,102267.16
2023-02-26T23:06:52.306Z,102268.66
2023-02-26T23:09:19.001Z,102271.47
2023-02-26T23:11:45.424Z,102276.13
2023-02-26T23:14:12.214Z,102267.09
2023-02-26T23:16:39.105Z,102271.56
2023-02-26T23:19:05.872Z,102276.22
2023-02-26T23:21:32.338Z,102294.06
2023-02-26T23:23:58.779Z,102291.25
2023-02-26T23:26:25.589Z,102289.19
2023-02-26T23:28:52.066Z,102290.00
2023-02-26T23:31:18.745Z,102300.16
2023-02-26T23:33:45.223Z,102294.16
2023-02-26T23:36:11.650Z,102284.63
2023-02-26T23:38:38.435Z,102289.66
2023-02-26T23:41:05.240Z,102290.00
2023-02-26T23:43:31.684Z,102300.00
2023-02-26T23:45:58.472Z,102290.00
2023-02-26T23:48:27.182Z,102292.47
2023-02-26T23:50:54.370Z,102286.75
2023-02-26T23:53:20.806Z,102298.75
2023-02-26T23:55:47.620Z,102298.50
2023-02-26T23:58:14.023Z,102306.97
